Time;durP1;ratioP1;P1;durP2;ratioP2;P2;SDS_P1;SDS_P2;PMS_P1;PMS_P2;Temp;Humidity;BMP_temperature;BMP_pressure;BME280_temperature;BME280_humidity;BME280_pressure;Samples;Min_cycle;Max_cycle;Signal;HPM_P1;HPM_P2
2021/03/01 13:29:50;;;;;;;21.58;5.40;;;26.40;35.20;;;;;;5082881;27;21085;-55
2021/03/01 13:32:16;;;;;;;13.27;4.13;;;22.50;38.90;;;;;;5071231;28;20029;-63
2021/03/01 13:51:49;;;;;;;21.38;5.05;;;23.60;38.60;;;;;;5090384;27;20489;-55
2021/03/01 13:54:14;;;;;;;17.65;5.38;;;23.40;36.70;;;;;;5055549;28;20503;-50
2021/03/01 13:56:40;;;;;;;18.20;4.75;;;23.20;37.20;;;;;;5060981;28;20035;-57
2021/03/01 13:59:06;;;;;;;18.60;4.80;;;23.00;37.60;;;;;;5058891;28;20091;-50
2021/03/01 14:01:32;;;;;;;15.85;4.57;;;22.80;37.20;;;;;;5056551;28;20060;-50
2021/03/01 14:03:58;;;;;;;17.40;5.57;;;22.60;37.90;;;;;;5063252;28;20071;-57
2021/03/01 14:06:23;;;;;;;10.93;4.75;;;22.60;37.90;;;;;;5065711;28;20033;-57
2021/03/01 14:08:49;;;;;;;12.60;4.60;;;22.50;37.60;;;;;;5065481;28;20032;-56
2021/03/01 14:11:15;;;;;;;17.70;5.05;;;22.50;37.80;;;;;;5059877;28;20123;-54
2021/03/01 14:13:40;;;;;;;12.90;4.75;;;22.40;37.70;;;;;;5058839;28;20162;-55
2021/03/01 14:16:06;;;;;;;15.00;4.40;;;22.40;37.90;;;;;;5064819;28;20039;-51
2021/03/01 14:18:32;;;;;;;13.60;4.32;;;22.30;37.90;;;;;;5065915;28;20025;-54
2021/03/01 14:20:58;;;;;;;13.05;3.97;;;22.30;37.60;;;;;;5066080;28;20061;-54
2021/03/01 14:23:23;;;;;;;14.98;4.63;;;22.20;37.60;;;;;;5064575;28;20065;-55
2021/03/01 14:25:49;;;;;;;11.65;4.28;;;22.20;37.70;;;;;;5063076;28;20496;-54
2021/03/01 14:28:15;;;;;;;15.60;4.63;;;22.20;37.60;;;;;;5058786;28;20024;-55
2021/03/01 14:30:40;;;;;;;19.42;4.70;;;22.20;37.70;;;;;;5058749;28;20093;-55
2021/03/01 14:33:06;;;;;;;20.73;5.07;;;22.20;37.80;;;;;;5060419;28;20017;-55
2021/03/01 14:35:32;;;;;;;17.02;5.38;;;22.10;37.80;;;;;;5059250;28;20379;-55
2021/03/01 14:37:57;;;;;;;16.92;4.40;;;22.20;37.80;;;;;;5058797;28;20100;-51
2021/03/01 14:40:23;;;;;;;15.00;4.18;;;22.20;37.90;;;;;;5060898;28;20104;-57
2021/03/01 14:42:49;;;;;;;15.18;4.10;;;22.30;38.00;;;;;;5060775;28;20048;-51
2021/03/01 14:45:15;;;;;;;14.27;4.03;;;22.40;38.00;;;;;;5061424;28;20156;-55
2021/03/01 14:47:41;;;;;;;16.42;4.25;;;22.30;37.80;;;;;;5059297;28;20040;-57
2021/03/01 14:50:07;;;;;;;18.25;4.53;;;22.40;37.80;;;;;;5064715;28;20033;-54
2021/03/01 14:52:33;;;;;;;12.82;3.92;;;22.40;37.90;;;;;;5063762;28;20753;-49
2021/03/01 14:54:59;;;;;;;14.60;4.82;;;22.50;37.80;;;;;;5059723;28;20021;-48
2021/03/01 14:57:24;;;;;;;13.05;4.03;;;22.50;37.70;;;;;;5061354;28;20804;-44
2021/03/01 14:59:50;;;;;;;12.35;4.07;;;22.50;37.40;;;;;;5066346;28;20040;-45
2021/03/01 15:02:16;;;;;;;13.50;3.95;;;22.60;37.60;;;;;;5050028;28;20021;-48
2021/03/01 15:04:41;;;;;;;12.20;4.00;;;22.60;37.80;;;;;;5042542;28;20119;-48
2021/03/01 15:07:07;;;;;;;9.65;3.72;;;22.60;37.50;;;;;;5044237;28;20518;-47
2021/03/01 15:09:34;;;;;;;13.15;3.85;;;22.60;37.60;;;;;;5046814;28;20506;-52
2021/03/01 15:12:00;;;;;;;17.65;4.55;;;22.70;37.80;;;;;;5046403;28;20021;-51
2021/03/01 15:14:26;;;;;;;15.65;4.35;;;22.60;37.30;;;;;;5046730;28;20033;-43
2021/03/01 15:16:52;;;;;;;15.07;4.38;;;22.60;37.50;;;;;;5043779;28;20423;-44
2021/03/01 15:19:17;;;;;;;15.07;3.78;;;22.60;37.80;;;;;;5048192;28;20379;-51
2021/03/01 15:21:44;;;;;;;15.05;4.13;;;22.70;37.90;;;;;;5052556;28;20507;-44
2021/03/01 15:24:11;;;;;;;20.77;4.97;;;22.70;37.20;;;;;;5049383;28;20612;-51
2021/03/01 15:26:36;;;;;;;11.57;3.90;;;22.60;37.30;;;;;;5046093;28;20059;-48
2021/03/01 15:29:03;;;;;;;16.30;4.22;;;22.50;37.00;;;;;;5036848;28;20033;-51
2021/03/01 15:31:29;;;;;;;12.38;4.10;;;22.50;37.40;;;;;;5044986;28;20080;-51
2021/03/01 15:33:54;;;;;;;14.43;3.92;;;22.60;37.70;;;;;;5040713;28;20473;-51
2021/03/01 15:36:20;;;;;;;11.32;3.67;;;22.60;37.60;;;;;;5042895;28;20511;-46
2021/03/01 15:38:46;;;;;;;10.60;3.38;;;22.70;37.50;;;;;;5047591;28;20068;-49
2021/03/01 15:41:11;;;;;;;10.40;3.53;;;22.80;37.30;;;;;;5049373;28;20072;-50
2021/03/01 15:43:37;;;;;;;10.77;3.75;;;22.80;37.50;;;;;;5046663;28;20457;-54
2021/03/01 15:46:04;;;;;;;10.30;3.25;;;22.80;37.50;;;;;;5045751;28;20066;-53
2021/03/01 15:48:30;;;;;;;8.57;3.63;;;22.80;37.20;;;;;;5046854;28;20024;-55
2021/03/01 15:50:55;;;;;;;11.73;3.67;;;22.80;37.10;;;;;;5040999;28;20494;-53
2021/03/01 15:53:21;;;;;;;13.90;3.90;;;22.80;37.50;;;;;;5040388;28;20484;-54
2021/03/01 15:55:47;;;;;;;14.90;3.70;;;22.70;37.20;;;;;;5042146;28;20064;-54
2021/03/01 15:58:12;;;;;;;10.38;4.00;;;22.70;37.30;;;;;;5040870;28;20158;-55
2021/03/01 16:00:38;;;;;;;10.57;3.75;;;22.70;37.50;;;;;;5040785;28;20060;-49
2021/03/01 16:03:04;;;;;;;11.98;3.22;;;22.70;37.80;;;;;;5049176;28;20502;-48
2021/03/01 16:05:30;;;;;;;14.48;3.25;;;22.70;37.60;;;;;;5040978;28;20021;-48
2021/03/01 16:07:55;;;;;;;12.43;3.30;;;22.80;37.20;;;;;;5046933;28;20037;-51
2021/03/01 16:10:21;;;;;;;12.63;3.67;;;22.70;37.40;;;;;;5043662;28;20068;-50
2021/03/01 16:12:47;;;;;;;10.98;3.60;;;22.70;37.10;;;;;;5049420;28;20096;-53
2021/03/01 16:15:13;;;;;;;14.85;4.55;;;22.70;36.60;;;;;;5048478;28;20028;-51
2021/03/01 16:17:39;;;;;;;15.60;4.15;;;22.60;36.60;;;;;;5052417;28;20728;-50
2021/03/01 16:20:05;;;;;;;12.25;3.75;;;22.60;36.90;;;;;;5051665;28;20108;-50
2021/03/01 16:22:32;;;;;;;11.05;3.80;;;22.60;36.50;;;;;;5050156;28;20039;-53
2021/03/01 16:24:58;;;;;;;14.18;4.07;;;22.60;36.20;;;;;;5050732;28;20037;-50
2021/03/01 16:27:24;;;;;;;8.55;3.60;;;22.60;36.50;;;;;;5050698;28;20024;-49
2021/03/01 17:28:11;;;;;;;27.48;7.93;;;16.20;48.00;;;;;;5078413;22;20373;-58
2021/03/01 17:30:42;;;;;;;26.35;7.93;;;16.00;49.20;;;;;;5066495;22;20064;-58
2021/03/01 17:33:08;;;;;;;25.08;7.90;;;15.90;49.30;;;;;;5093199;23;20139;-58
2021/03/01 17:35:34;;;;;;;24.20;7.80;;;15.90;49.30;;;;;;5077503;22;20056;-61
2021/03/01 17:38:03;;;;;;;27.30;7.00;;;15.80;49.60;;;;;;5078413;22;20419;-61
2021/03/01 17:42:56;;;;;;;18.67;7.13;;;15.70;50.40;;;;;;5079520;22;20055;-61
2021/03/01 17:45:21;;;;;;;21.27;6.85;;;15.60;50.60;;;;;;5086353;28;20239;-60
2021/03/01 17:50:27;;;;;;;24.27;8.43;;;15.40;52.20;;;;;;5079256;22;20045;-60
2021/03/01 17:53:19;;;;;;;25.08;8.73;;;15.30;53.20;;;;;;5095632;22;20048;-60
2021/03/01 17:56:17;;;;;;;22.65;8.52;;;15.20;53.50;;;;;;5098167;22;20063;-60
2021/03/01 18:01:30;;;;;;;19.88;8.52;;;15.00;55.90;;;;;;5079628;22;20143;-60
2021/03/01 18:03:58;;;;;;;26.17;8.93;;;14.90;55.90;;;;;;5095879;22;20091;-60
2021/03/01 18:06:26;;;;;;;26.70;9.05;;;14.80;56.70;;;;;;5098173;22;20135;-60
2021/03/01 18:16:16;;;;;;;26.95;10.75;;;14.40;58.20;;;;;;5079152;22;20048;-61
2021/03/01 18:18:44;;;;;;;28.95;10.57;;;14.30;58.40;;;;;;5094528;22;20045;-61
2021/03/01 18:21:10;;;;;;;25.33;10.48;;;14.20;58.20;;;;;;5079475;22;20048;-60
2021/03/01 18:28:31;;;;;;;27.13;10.90;;;14.10;58.80;;;;;;5079009;22;20056;-61
2021/03/01 18:33:31;;;;;;;32.58;11.98;;;14.10;59.00;;;;;;5080677;22;20048;-61
2021/03/01 18:38:35;;;;;;;27.00;10.35;;;14.10;58.70;;;;;;5070420;22;20144;-61
2021/03/01 18:41:04;;;;;;;28.25;9.93;;;14.00;58.60;;;;;;5065253;22;20135;-61
2021/03/01 18:43:31;;;;;;;23.75;10.20;;;14.00;58.30;;;;;;5084406;22;20059;-61
2021/03/01 18:51:02;;;;;;;25.33;11.40;;;13.90;58.30;;;;;;5066039;22;20132;-61
2021/03/01 18:53:38;;;;;;;;;;;;;;;;;;;;;
2021/03/01 18:55:53;;;;;;;32.30;12.98;;;13.90;59.00;;;;;;5066781;22;20206;-61
2021/03/01 18:58:19;;;;;;;34.85;12.20;;;13.80;59.00;;;;;;5083721;22;20048;-61
2021/03/01 19:00:45;;;;;;;31.77;12.07;;;13.80;57.70;;;;;;5065613;22;20078;-61
2021/03/01 19:03:12;;;;;;;31.05;12.63;;;13.80;58.30;;;;;;5064037;22;20143;-61
2021/03/01 19:05:38;;;;;;;31.83;12.82;;;13.80;58.60;;;;;;5064320;22;20055;-61
2021/03/01 19:08:05;;;;;;;33.45;13.10;;;13.80;58.50;;;;;;5083821;22;20053;-61
2021/03/01 19:10:31;;;;;;;30.75;13.50;;;13.70;58.90;;;;;;5065486;22;20163;-61
2021/03/01 19:15:24;;;;;;;37.17;15.93;;;13.70;60.00;;;;;;5085170;22;20059;-61
2021/03/01 19:17:50;;;;;;;33.00;13.93;;;13.70;59.80;;;;;;5105216;22;20072;-61
2021/03/01 19:20:16;;;;;;;35.13;13.55;;;13.60;59.60;;;;;;5085315;22;20052;-61
2021/03/01 19:22:42;;;;;;;29.08;14.15;;;13.60;59.60;;;;;;5105002;22;20063;-61
2021/03/01 19:27:36;;;;;;;128.18;61.80;;;13.50;59.80;;;;;;5064721;22;20053;-61
2021/03/01 19:30:04;;;;;;;95.35;41.33;;;13.50;60.20;;;;;;5086331;23;20056;-61
2021/03/01 19:32:30;;;;;;;122.07;59.30;;;13.50;60.70;;;;;;5064340;22;20110;-61
2021/03/01 19:37:21;;;;;;;94.68;42.20;;;13.40;61.10;;;;;;5139050;22;20051;-62
2021/03/01 19:39:48;;;;;;;62.33;28.15;;;13.40;60.80;;;;;;5104355;22;20044;-61
2021/03/01 19:42:15;;;;;;;59.42;26.25;;;13.30;60.70;;;;;;5063814;22;20147;-61
2021/03/01 19:44:41;;;;;;;41.67;18.77;;;13.30;61.20;;;;;;5044081;22;20076;-61
2021/03/01 19:47:07;;;;;;;36.28;16.75;;;13.30;60.90;;;;;;5034187;28;20042;-61
2021/03/01 19:49:34;;;;;;;39.15;17.00;;;13.20;61.30;;;;;;5042048;22;20084;-61
2021/03/01 19:52:01;;;;;;;33.15;16.75;;;13.20;61.60;;;;;;5043123;22;20057;-61
2021/03/01 19:54:27;;;;;;;35.65;16.60;;;13.20;61.90;;;;;;5043455;22;20148;-61
2021/03/01 19:56:53;;;;;;;34.30;14.40;;;13.20;61.70;;;;;;5039123;22;20054;-61
2021/03/01 19:59:19;;;;;;;31.08;13.55;;;13.10;61.40;;;;;;5042946;23;20053;-61
2021/03/01 20:01:45;;;;;;;34.50;13.55;;;13.10;61.20;;;;;;5083196;22;20056;-61
2021/03/01 20:04:11;;;;;;;34.15;14.98;;;13.00;61.10;;;;;;5085688;22;20052;-61
2021/03/01 20:06:37;;;;;;;25.42;14.10;;;13.00;61.60;;;;;;5077003;28;20039;-61
2021/03/01 20:11:32;;;;;;;30.48;12.93;;;13.00;61.60;;;;;;5104382;22;20086;-61
2021/03/01 20:13:58;;;;;;;32.50;16.33;;;13.00;61.80;;;;;;5084304;23;20150;-61
2021/03/01 20:16:24;;;;;;;38.90;15.57;;;12.90;62.00;;;;;;5085502;22;20067;-61
2021/03/01 20:18:51;;;;;;;34.95;14.90;;;12.80;62.90;;;;;;5085002;22;20063;-61
2021/03/01 20:21:21;;;;;;;33.00;14.90;;;12.80;63.10;;;;;;5082021;22;20473;-61
2021/03/01 20:26:12;;;;;;;40.55;17.45;;;12.80;63.10;;;;;;5082934;22;20053;-61
2021/03/01 20:28:39;;;;;;;43.25;16.77;;;12.70;63.30;;;;;;5062595;22;20123;-61
2021/03/01 20:31:06;;;;;;;34.05;14.63;;;12.70;64.00;;;;;;5083370;22;20132;-61
2021/03/01 20:33:32;;;;;;;34.80;14.07;;;12.70;63.10;;;;;;5062081;22;20052;-61
2021/03/01 20:35:58;;;;;;;29.45;13.05;;;12.60;62.40;;;;;;5045908;22;20052;-61
2021/03/01 20:38:24;;;;;;;38.20;14.10;;;12.60;62.70;;;;;;5103027;22;20127;-61
2021/03/01 20:40:49;;;;;;;29.02;12.98;;;12.60;61.20;;;;;;5082157;22;20465;-61
2021/03/01 20:45:41;;;;;;;28.70;11.93;;;12.70;61.70;;;;;;5104763;22;20139;-61
2021/03/01 20:48:07;;;;;;;36.70;12.43;;;12.60;61.70;;;;;;5102152;22;20143;-61
2021/03/01 20:50:33;;;;;;;27.90;13.25;;;12.70;61.50;;;;;;5102085;22;20075;-61
2021/03/01 20:52:59;;;;;;;31.63;14.05;;;12.70;61.90;;;;;;5102016;22;20546;-61
2021/03/01 20:55:25;;;;;;;42.67;14.80;;;12.60;62.20;;;;;;5101910;22;20538;-61
2021/03/01 20:57:50;;;;;;;32.40;13.68;;;12.60;62.70;;;;;;5103919;22;20063;-61
2021/03/01 21:00:20;;;;;;;33.25;14.68;;;12.60;62.60;;;;;;5101820;22;20052;-61
2021/03/01 21:02:43;;;;;;;34.28;14.60;;;12.50;62.60;;;;;;5103751;22;20056;-61
2021/03/01 21:05:10;;;;;;;41.92;15.07;;;12.50;62.50;;;;;;5102313;22;20051;-61
2021/03/01 21:07:36;;;;;;;29.60;13.95;;;12.50;62.50;;;;;;5101495;22;20060;-61
2021/03/01 21:10:04;;;;;;;32.28;14.40;;;12.50;62.60;;;;;;5102285;22;20052;-61
2021/03/01 21:12:32;;;;;;;35.10;14.27;;;12.50;62.70;;;;;;5102362;22;20066;-61
2021/03/01 21:14:57;;;;;;;32.95;13.50;;;12.40;63.30;;;;;;5103963;22;20048;-61
2021/03/01 21:17:23;;;;;;;34.13;14.40;;;12.40;63.50;;;;;;5082170;22;20098;-61
2021/03/01 21:19:50;;;;;;;34.72;15.82;;;12.40;63.20;;;;;;5112048;22;20199;-61
2021/03/01 21:24:55;;;;;;;33.75;14.75;;;12.20;66.10;;;;;;5100837;22;20538;-61
2021/03/01 21:34:47;;;;;;;29.13;14.50;;;11.90;66.80;;;;;;5102074;22;20163;-61
2021/03/01 21:37:16;;;;;;;37.10;16.05;;;11.90;66.80;;;;;;5105104;22;20160;-61
2021/03/01 21:44:39;;;;;;;37.35;17.48;;;11.80;66.10;;;;;;5084405;22;20052;-61
2021/03/01 21:52:03;;;;;;;35.47;16.33;;;11.70;66.20;;;;;;5083344;22;20508;-61
2021/03/01 21:59:22;;;;;;;33.35;15.73;;;11.70;66.60;;;;;;5103748;22;20056;-61
2021/03/01 22:01:48;;;;;;;31.70;15.98;;;11.60;66.50;;;;;;5085365;22;20052;-61
2021/03/01 22:04:19;;;;;;;32.17;15.45;;;11.60;66.30;;;;;;5100367;22;20054;-61
2021/03/01 22:06:45;;;;;;;39.72;17.13;;;11.60;65.90;;;;;;5098759;22;20508;-61
2021/03/01 22:09:11;;;;;;;34.72;14.73;;;11.60;65.80;;;;;;5101474;22;20135;-61
2021/03/01 22:11:37;;;;;;;36.58;15.13;;;11.60;65.60;;;;;;5084655;22;20528;-61
2021/03/01 22:14:04;;;;;;;30.52;15.02;;;11.60;65.50;;;;;;5104606;22;20052;-61
2021/03/01 22:16:31;;;;;;;31.80;15.45;;;11.60;65.20;;;;;;5107210;22;20047;-61
2021/03/01 22:18:58;;;;;;;30.67;13.52;;;11.60;65.50;;;;;;5087696;22;20520;-61
2021/03/01 22:23:57;;;;;;;27.55;14.07;;;11.50;65.70;;;;;;5107090;22;20084;-61
2021/03/01 22:26:36;;;;;;;31.33;13.95;;;11.50;65.60;;;;;;5108605;22;20082;-61
2021/03/01 22:29:08;;;;;;;37.50;15.18;;;11.50;65.40;;;;;;5085892;22;20057;-61
2021/03/01 22:36:32;;;;;;;37.20;14.23;;;11.40;65.80;;;;;;5106712;22;20416;-61
2021/03/01 22:41:31;;;;;;;34.38;14.07;;;11.40;65.30;;;;;;5106146;22;20059;-61
2021/03/01 22:44:03;;;;;;;34.05;13.80;;;11.40;65.20;;;;;;5083576;22;20049;-61
2021/03/01 22:46:31;;;;;;;37.00;13.70;;;11.40;65.70;;;;;;5088771;22;20048;-61
2021/03/01 22:56:19;;;;;;;30.83;14.63;;;11.40;64.90;;;;;;5105829;22;20139;-61
2021/03/01 22:58:46;;;;;;;29.92;13.68;;;11.40;65.40;;;;;;5107662;22;20048;-61
2021/03/01 23:01:12;;;;;;;37.92;13.95;;;11.40;64.50;;;;;;5088107;22;20098;-61
2021/03/01 23:03:38;;;;;;;27.90;12.82;;;11.40;64.40;;;;;;5088550;22;20060;-61
2021/03/01 23:06:06;;;;;;;25.83;12.35;;;11.40;64.70;;;;;;5106345;22;20044;-61
2021/03/01 23:08:31;;;;;;;34.25;13.07;;;11.50;64.90;;;;;;5104669;22;20048;-61
2021/03/01 23:10:57;;;;;;;28.70;12.90;;;11.50;64.70;;;;;;5085775;22;20147;-61
2021/03/01 23:13:23;;;;;;;38.35;15.23;;;11.50;64.40;;;;;;5144407;22;20081;-61
2021/03/01 23:15:49;;;;;;;40.80;13.48;;;11.50;65.00;;;;;;5069730;22;20056;-61
2021/03/01 23:18:15;;;;;;;37.00;13.73;;;11.50;65.30;;;;;;5085178;22;20058;-61
2021/03/01 23:20:41;;;;;;;33.13;14.50;;;11.40;65.30;;;;;;5106656;22;20048;-61
2021/03/01 23:25:33;;;;;;;30.60;13.65;;;11.40;64.60;;;;;;5106408;22;20048;-61
2021/03/01 23:27:59;;;;;;;28.63;13.50;;;11.30;65.20;;;;;;5107811;22;20059;-62
2021/03/01 23:30:25;;;;;;;32.15;13.45;;;11.30;65.40;;;;;;5088222;22;20054;-62
2021/03/01 23:32:51;;;;;;;37.97;13.40;;;11.30;65.20;;;;;;5084426;22;20053;-62
2021/03/01 23:35:17;;;;;;;30.73;12.98;;;11.30;65.40;;;;;;5106931;22;20059;-62
2021/03/01 23:37:46;;;;;;;29.67;12.35;;;11.30;64.80;;;;;;5087811;22;20048;-62
2021/03/01 23:40:14;;;;;;;28.20;12.43;;;11.30;65.60;;;;;;5105798;22;20048;-62
2021/03/01 23:42:44;;;;;;;30.60;12.32;;;11.30;65.50;;;;;;5087483;22;20052;-62
2021/03/01 23:45:11;;;;;;;27.00;13.05;;;11.40;65.10;;;;;;5087131;22;20147;-62
2021/03/01 23:47:37;;;;;;;28.73;12.18;;;11.40;65.10;;;;;;5087089;22;20168;-61
2021/03/01 23:50:09;;;;;;;34.00;13.40;;;11.40;65.40;;;;;;5083940;22;20052;-62
2021/03/01 23:57:32;;;;;;;29.13;13.35;;;11.40;64.90;;;;;;5085516;22;20052;-62
